createdAt,value
2023-02-07T00:01:34.150Z,9.00
2023-02-07T00:04:02.475Z,8.30
2023-02-07T00:06:36.492Z,8.20
2023-02-07T00:09:07.313Z,8.40
2023-02-07T00:11:36.642Z,10.60
2023-02-07T00:14:04.859Z,7.90
2023-02-07T00:16:33.010Z,8.40
2023-02-07T00:19:00.998Z,8.70
2023-02-07T00:21:29.997Z,9.00
2023-02-07T00:23:58.577Z,8.70
2023-02-07T00:26:27.470Z,8.50
2023-02-07T00:28:56.190Z,8.70
2023-02-07T00:31:31.051Z,9.20
2023-02-07T00:34:02.975Z,8.40
2023-02-07T00:36:33.353Z,8.00
2023-02-07T00:39:04.591Z,7.90
2023-02-07T00:41:33.144Z,8.50
2023-02-07T00:44:01.128Z,8.50
2023-02-07T00:46:30.154Z,8.40
2023-02-07T00:48:58.008Z,8.00
2023-02-07T00:51:26.183Z,8.10
2023-02-07T00:53:55.612Z,8.30
2023-02-07T00:56:27.463Z,8.40
2023-02-07T00:58:55.295Z,7.60
2023-02-07T01:01:25.439Z,8.60
2023-02-07T01:03:54.207Z,8.40
2023-02-07T01:06:22.007Z,8.00
2023-02-07T01:08:49.807Z,8.20
2023-02-07T01:11:19.033Z,7.60
2023-02-07T01:13:47.395Z,7.90
2023-02-07T01:16:26.949Z,7.80
2023-02-07T01:18:55.093Z,6.80
2023-02-07T01:21:27.029Z,8.20
2023-02-07T01:23:57.318Z,7.80
2023-02-07T01:26:26.246Z,8.20
2023-02-07T01:28:55.925Z,8.50
2023-02-07T01:31:24.709Z,8.50
2023-02-07T01:33:56.936Z,7.70
2023-02-07T01:36:28.283Z,8.10
2023-02-07T01:38:57.266Z,8.20
2023-02-07T01:41:26.165Z,8.40
2023-02-07T01:43:59.496Z,7.60
2023-02-07T01:46:28.600Z,8.10
2023-02-07T01:49:00.294Z,7.50
2023-02-07T01:51:30.036Z,7.10
2023-02-07T01:54:03.385Z,7.20
2023-02-07T01:56:32.828Z,6.80
2023-02-07T01:59:04.557Z,6.90
2023-02-07T02:01:33.307Z,6.40
2023-02-07T02:04:01.387Z,6.70
2023-02-07T02:06:31.986Z,6.70
2023-02-07T02:09:01.932Z,6.70
2023-02-07T02:11:45.915Z,6.60
2023-02-07T02:14:35.804Z,6.60
2023-02-07T02:17:09.844Z,6.80
2023-02-07T02:20:10.132Z,6.40
2023-02-07T02:22:55.674Z,6.50
2023-02-07T02:25:39.748Z,6.20
2023-02-07T02:31:33.606Z,6.20
2023-02-07T02:34:25.119Z,6.40
2023-02-07T02:36:58.632Z,6.40
2023-02-07T02:39:55.941Z,6.00
2023-02-07T02:42:43.592Z,5.80
2023-02-07T02:45:21.317Z,5.90
2023-02-07T02:47:51.780Z,5.60
2023-02-07T02:50:26.772Z,5.80
2023-02-07T02:52:55.192Z,6.40
2023-02-07T02:55:47.347Z,5.90
2023-02-07T02:58:31.420Z,5.60
2023-02-07T03:01:22.130Z,6.90
2023-02-07T03:03:52.795Z,6.00
2023-02-07T03:06:53.221Z,5.40
2023-02-07T03:09:37.648Z,6.30
2023-02-07T03:12:11.706Z,5.80
2023-02-07T03:14:57.755Z,5.20
2023-02-07T03:17:34.751Z,5.90
2023-02-07T03:20:22.166Z,5.50
2023-02-07T03:22:53.931Z,5.20
2023-02-07T03:25:24.212Z,5.60
2023-02-07T03:27:55.051Z,5.60
2023-02-07T03:30:28.519Z,5.70
2023-02-07T03:33:02.072Z,5.90
2023-02-07T03:35:44.421Z,5.90
2023-02-07T03:38:13.549Z,5.70
2023-02-07T03:40:49.042Z,5.50
2023-02-07T03:43:23.380Z,6.10
2023-02-07T03:45:51.221Z,5.60
2023-02-07T03:48:19.838Z,5.30
2023-02-07T03:50:50.645Z,5.80
2023-02-07T03:53:20.042Z,5.80
2023-02-07T03:55:47.931Z,5.20
2023-02-07T03:58:15.776Z,5.60
2023-02-07T04:00:43.758Z,5.40
2023-02-07T04:03:12.178Z,5.30
2023-02-07T04:05:41.217Z,5.90
2023-02-07T04:08:09.063Z,5.60
2023-02-07T04:10:36.927Z,6.80
2023-02-07T04:13:04.881Z,5.70
2023-02-07T04:15:33.090Z,6.10
2023-02-07T04:18:00.931Z,6.10
2023-02-07T04:20:28.768Z,5.90
2023-02-07T04:22:56.669Z,5.50
2023-02-07T04:25:25.282Z,5.50
2023-02-07T04:27:53.193Z,5.30
2023-02-07T04:30:21.299Z,5.40
2023-02-07T04:32:49.282Z,5.40
2023-02-07T04:35:17.551Z,5.30
2023-02-07T04:37:45.429Z,5.90
2023-02-07T04:40:13.596Z,6.20
2023-02-07T04:42:41.495Z,5.50
2023-02-07T04:45:10.081Z,5.70
2023-02-07T04:47:37.939Z,5.40
2023-02-07T04:50:06.344Z,6.00
2023-02-07T04:52:34.194Z,5.30
2023-02-07T04:55:02.160Z,6.10
2023-02-07T04:57:30.373Z,5.40
2023-02-07T04:59:58.572Z,6.20
2023-02-07T05:02:26.587Z,5.70
2023-02-07T05:04:54.573Z,5.80
2023-02-07T05:07:23.404Z,5.50
2023-02-07T05:09:51.699Z,5.20
2023-02-07T05:12:19.744Z,5.80
2023-02-07T05:14:47.638Z,5.80
2023-02-07T05:17:15.533Z,5.70
2023-02-07T05:19:43.578Z,5.20
2023-02-07T05:22:11.465Z,5.10
2023-02-07T05:24:39.298Z,5.30
2023-02-07T05:27:07.203Z,5.00
2023-02-07T05:29:35.258Z,5.50
2023-02-07T05:32:19.320Z,5.30
2023-02-07T05:34:47.248Z,5.80
2023-02-07T05:37:15.136Z,5.10
2023-02-07T05:39:43.029Z,5.20
2023-02-07T05:42:10.860Z,5.30
2023-02-07T05:44:38.747Z,5.10
2023-02-07T05:47:08.180Z,4.90
2023-02-07T05:49:36.052Z,4.60
2023-02-07T05:52:04.015Z,5.80
2023-02-07T05:54:31.923Z,4.70
2023-02-07T05:57:00.074Z,4.10
2023-02-07T05:59:28.002Z,5.00
2023-02-07T06:01:55.988Z,4.50
2023-02-07T06:04:23.893Z,5.10
2023-02-07T06:06:51.952Z,5.00
2023-02-07T06:09:20.421Z,5.70
2023-02-07T06:11:48.580Z,5.20
2023-02-07T06:14:16.463Z,5.20
2023-02-07T06:16:44.346Z,4.50
2023-02-07T06:19:12.991Z,5.60
2023-02-07T06:21:46.757Z,5.60
2023-02-07T06:24:16.165Z,4.90
2023-02-07T06:26:46.496Z,4.90
2023-02-07T06:29:14.527Z,5.10
2023-02-07T06:31:42.795Z,5.10
2023-02-07T06:34:10.974Z,5.70
2023-02-07T06:36:38.892Z,5.80
2023-02-07T06:39:06.928Z,5.10
2023-02-07T06:41:34.769Z,5.70
2023-02-07T06:44:02.677Z,4.70
2023-02-07T06:46:30.716Z,5.00
2023-02-07T06:48:58.651Z,5.00
2023-02-07T06:51:26.724Z,5.80
2023-02-07T06:53:54.850Z,5.40
2023-02-07T06:56:22.820Z,5.10
2023-02-07T06:58:50.807Z,5.90
2023-02-07T07:01:20.278Z,6.50
2023-02-07T07:03:48.234Z,6.50
2023-02-07T07:06:16.212Z,5.50
2023-02-07T07:08:44.107Z,5.00
2023-02-07T07:11:12.178Z,5.30
2023-02-07T07:13:40.012Z,5.20
2023-02-07T07:16:08.279Z,6.00
2023-02-07T07:18:38.552Z,6.00
2023-02-07T07:21:07.108Z,7.30
2023-02-07T07:23:36.667Z,5.50
2023-02-07T07:26:05.213Z,5.50
2023-02-07T07:28:33.819Z,5.40
2023-02-07T07:31:04.842Z,5.50
2023-02-07T07:33:33.541Z,5.30
2023-02-07T07:36:02.540Z,5.50
2023-02-07T07:38:31.120Z,5.50
2023-02-07T07:41:00.052Z,5.10
2023-02-07T07:43:28.022Z,5.00
2023-02-07T07:45:59.958Z,6.30
2023-02-07T07:48:27.988Z,5.40
2023-02-07T07:50:55.831Z,6.10
2023-02-07T07:53:23.839Z,6.10
2023-02-07T07:55:53.691Z,5.40
2023-02-07T07:58:23.305Z,5.80
2023-02-07T08:00:52.169Z,6.50
2023-02-07T08:03:20.951Z,5.60
2023-02-07T08:05:49.753Z,6.30
2023-02-07T08:08:22.224Z,6.50
2023-02-07T08:10:50.192Z,5.70
2023-02-07T08:13:18.470Z,5.60
2023-02-07T08:15:46.580Z,5.30
2023-02-07T08:18:14.882Z,5.40
2023-02-07T08:20:43.109Z,5.30
2023-02-07T08:23:11.677Z,4.80
2023-02-07T08:25:40.772Z,5.70
2023-02-07T08:28:09.536Z,6.00
2023-02-07T08:30:38.051Z,5.30
2023-02-07T08:33:06.123Z,6.30
2023-02-07T08:35:34.059Z,5.10
2023-02-07T08:38:02.090Z,5.60
2023-02-07T08:40:30.236Z,5.30
2023-02-07T08:42:59.310Z,5.40
2023-02-07T08:45:27.339Z,5.00
2023-02-07T08:47:55.347Z,5.40
2023-02-07T08:50:23.371Z,5.70
2023-02-07T08:52:51.577Z,5.00
2023-02-07T08:55:19.512Z,5.30
2023-02-07T08:57:47.338Z,5.50
2023-02-07T09:00:16.619Z,5.50
2023-02-07T09:02:44.638Z,4.90
2023-02-07T09:05:12.783Z,4.40
2023-02-07T09:07:40.729Z,4.70
2023-02-07T09:10:10.556Z,5.30
2023-02-07T09:12:38.622Z,4.90
2023-02-07T09:15:07.311Z,5.90
2023-02-07T09:17:35.182Z,5.10
2023-02-07T09:20:04.288Z,5.50
2023-02-07T09:22:52.510Z,5.90
2023-02-07T09:25:20.618Z,6.10
2023-02-07T09:27:48.572Z,5.50
2023-02-07T09:30:17.387Z,5.10
2023-02-07T09:32:45.386Z,4.90
2023-02-07T09:35:13.480Z,4.90
2023-02-07T09:37:49.230Z,5.10
2023-02-07T09:40:20.851Z,4.60
2023-02-07T09:43:01.432Z,5.70
2023-02-07T09:45:36.225Z,5.10
2023-02-07T09:48:11.910Z,9.40
2023-02-07T09:50:47.647Z,8.20
2023-02-07T09:53:18.989Z,6.80
2023-02-07T09:55:52.484Z,7.40
2023-02-07T09:58:27.116Z,6.70
2023-02-07T10:01:12.529Z,7.60
2023-02-07T10:04:01.007Z,5.40
2023-02-07T10:06:28.909Z,4.50
2023-02-07T10:09:00.754Z,5.30
2023-02-07T10:11:44.555Z,6.10
2023-02-07T10:14:15.453Z,4.80
2023-02-07T10:16:54.309Z,4.80
2023-02-07T10:19:41.249Z,5.20
2023-02-07T10:22:30.984Z,4.20
2023-02-07T10:25:10.168Z,4.50
2023-02-07T10:27:46.423Z,4.70
2023-02-07T10:30:35.928Z,4.70
2023-02-07T10:33:21.949Z,5.60
2023-02-07T10:35:52.184Z,5.10
2023-02-07T10:39:07.686Z,4.40
2023-02-07T10:41:43.536Z,3.90
2023-02-07T10:44:16.305Z,4.60
2023-02-07T10:46:46.299Z,5.20
2023-02-07T10:49:25.920Z,4.50
2023-02-07T10:52:25.834Z,4.40
2023-02-07T10:54:58.613Z,5.20
2023-02-07T10:57:28.624Z,4.00
2023-02-07T11:00:15.356Z,3.80
2023-02-07T11:02:51.984Z,4.30
2023-02-07T11:05:21.838Z,4.80
2023-02-07T11:08:09.927Z,4.60
2023-02-07T11:10:41.769Z,4.60
2023-02-07T11:13:15.154Z,4.10
2023-02-07T11:15:48.032Z,4.00
2023-02-07T11:18:47.788Z,4.10
2023-02-07T11:21:18.554Z,4.00
2023-02-07T11:23:48.236Z,4.00
2023-02-07T11:26:19.281Z,4.70
2023-02-07T11:28:52.196Z,4.20
2023-02-07T11:31:28.994Z,3.90
2023-02-07T11:34:25.609Z,3.70
2023-02-07T11:36:53.559Z,4.10
2023-02-07T11:39:23.566Z,4.20
2023-02-07T11:41:59.978Z,3.50
2023-02-07T11:44:31.104Z,3.80
2023-02-07T11:47:04.744Z,3.70
2023-02-07T11:49:38.561Z,4.10
2023-02-07T11:52:07.084Z,4.10
2023-02-07T11:54:36.683Z,4.70
2023-02-07T11:57:11.585Z,4.00
2023-02-07T12:00:08.870Z,3.90
2023-02-07T12:02:49.782Z,4.10
2023-02-07T12:05:28.315Z,4.10
2023-02-07T12:08:03.548Z,4.00
2023-02-07T12:10:36.524Z,4.20
2023-02-07T12:13:07.311Z,4.20
2023-02-07T12:15:42.381Z,5.00
2023-02-07T12:18:10.279Z,4.30
2023-02-07T12:20:54.108Z,4.30
2023-02-07T12:23:43.100Z,4.60
2023-02-07T12:26:22.043Z,4.40
2023-02-07T12:29:11.041Z,4.20
2023-02-07T12:31:47.305Z,4.70
2023-02-07T12:34:23.046Z,4.40
2023-02-07T12:36:57.488Z,4.80
2023-02-07T12:40:03.180Z,4.30
2023-02-07T12:42:51.355Z,4.50
2023-02-07T12:45:34.759Z,4.60
2023-02-07T12:48:30.598Z,4.70
2023-02-07T12:51:22.759Z,3.80
2023-02-07T12:54:05.566Z,4.30
2023-02-07T12:56:56.162Z,4.10
2023-02-07T12:59:43.023Z,3.80
2023-02-07T13:02:33.140Z,5.10
2023-02-07T13:05:07.093Z,4.10
2023-02-07T13:07:40.819Z,4.30
2023-02-07T13:13:03.292Z,3.70
2023-02-07T13:15:34.902Z,5.00
2023-02-07T13:18:18.688Z,3.70
2023-02-07T13:21:09.380Z,4.50
2023-02-07T13:23:41.958Z,4.40
2023-02-07T13:26:14.425Z,4.40
2023-02-07T13:28:59.871Z,4.40
2023-02-07T13:31:51.528Z,4.00
2023-02-07T13:34:25.521Z,4.30
2023-02-07T13:36:53.741Z,4.30
2023-02-07T13:39:29.790Z,4.00
2023-02-07T13:42:29.677Z,4.20
2023-02-07T13:45:13.406Z,3.80
2023-02-07T13:47:44.182Z,3.90
2023-02-07T13:50:43.888Z,5.30
2023-02-07T13:53:29.048Z,4.00
2023-02-07T13:56:03.566Z,4.00
2023-02-07T13:58:49.573Z,3.90
2023-02-07T14:01:38.964Z,4.20
2023-02-07T14:04:12.375Z,4.10
2023-02-07T14:06:44.307Z,4.10
2023-02-07T14:09:33.567Z,4.80
2023-02-07T14:12:01.352Z,4.30
2023-02-07T14:14:31.872Z,4.00
2023-02-07T14:17:04.130Z,4.30
2023-02-07T14:19:49.780Z,4.30
2023-02-07T14:22:48.511Z,4.10
2023-02-07T14:25:37.818Z,3.80
2023-02-07T14:28:08.642Z,3.90
2023-02-07T14:30:51.260Z,3.90
2023-02-07T14:33:29.813Z,4.60
2023-02-07T14:36:14.512Z,3.80
2023-02-07T14:38:58.826Z,4.30
2023-02-07T14:44:09.280Z,3.80
2023-02-07T14:46:47.189Z,4.10
2023-02-07T14:49:20.753Z,4.60
2023-02-07T14:52:00.414Z,4.40
2023-02-07T14:54:34.234Z,3.90
2023-02-07T14:57:33.939Z,4.80
2023-02-07T15:00:33.799Z,4.50
2023-02-07T15:03:11.620Z,4.60
2023-02-07T15:05:51.214Z,4.50
2023-02-07T15:08:24.764Z,4.80
2023-02-07T15:10:56.580Z,4.90
2023-02-07T15:13:43.041Z,5.00
2023-02-07T15:16:10.928Z,4.80
2023-02-07T15:18:44.948Z,6.60
2023-02-07T15:21:19.911Z,4.90
2023-02-07T15:24:06.178Z,5.60
2023-02-07T15:26:35.707Z,5.50
2023-02-07T15:29:19.506Z,4.90
2023-02-07T15:31:47.770Z,5.40
2023-02-07T15:34:19.955Z,6.40
2023-02-07T15:36:49.380Z,7.80
2023-02-07T15:39:26.424Z,8.10
2023-02-07T15:41:56.238Z,8.20
2023-02-07T15:44:31.715Z,8.40
2023-02-07T15:47:07.588Z,7.50
2023-02-07T15:49:40.822Z,6.10
2023-02-07T15:52:11.967Z,6.20
2023-02-07T15:54:45.723Z,10.60
2023-02-07T15:57:35.579Z,7.20
2023-02-07T16:00:09.040Z,4.20
2023-02-07T16:02:48.313Z,5.20
2023-02-07T16:05:26.498Z,4.30
2023-02-07T16:07:55.806Z,4.70
2023-02-07T16:10:23.559Z,6.70
2023-02-07T16:12:54.202Z,5.20
2023-02-07T16:15:32.227Z,5.00
2023-02-07T16:18:01.697Z,6.10
2023-02-07T16:20:32.337Z,39.10
2023-02-07T16:23:03.354Z,28.10
2023-02-07T16:25:34.100Z,16.20
2023-02-07T16:28:08.134Z,7.60
2023-02-07T16:30:38.521Z,6.10
2023-02-07T16:33:08.701Z,6.30
2023-02-07T16:35:36.494Z,5.50
2023-02-07T16:38:04.388Z,19.20
2023-02-07T16:40:32.446Z,14.20
2023-02-07T16:43:04.182Z,9.50
2023-02-07T16:45:32.743Z,8.20
2023-02-07T16:48:00.765Z,8.60
2023-02-07T16:50:30.659Z,8.60
2023-02-07T16:52:59.460Z,7.70
2023-02-07T16:55:28.588Z,7.90
2023-02-07T16:57:57.342Z,8.90
2023-02-07T17:00:27.075Z,10.80
2023-02-07T17:02:54.947Z,9.30
2023-02-07T17:05:23.645Z,9.30
2023-02-07T17:07:51.533Z,7.60
2023-02-07T17:10:28.517Z,7.90
2023-02-07T17:12:56.648Z,8.70
2023-02-07T17:15:24.604Z,7.60
2023-02-07T17:17:53.713Z,7.80
2023-02-07T17:20:29.740Z,8.80
2023-02-07T17:22:59.693Z,7.00
2023-02-07T17:25:29.866Z,6.90
2023-02-07T17:27:58.996Z,5.70
2023-02-07T17:30:30.217Z,5.80
2023-02-07T17:32:58.483Z,6.50
2023-02-07T17:35:26.417Z,5.90
2023-02-07T17:37:54.293Z,6.00
2023-02-07T17:40:40.255Z,5.70
2023-02-07T17:43:09.097Z,5.70
2023-02-07T17:45:38.017Z,7.10
2023-02-07T17:48:06.428Z,6.00
2023-02-07T17:50:36.942Z,6.40
2023-02-07T17:53:04.771Z,6.20
2023-02-07T17:55:36.911Z,6.00
2023-02-07T17:58:05.675Z,5.70
2023-02-07T18:00:37.908Z,6.10
2023-02-07T18:03:07.551Z,6.40
2023-02-07T18:05:35.575Z,7.50
2023-02-07T18:08:03.671Z,13.20
2023-02-07T18:10:33.566Z,10.50
2023-02-07T18:13:01.734Z,6.90
2023-02-07T18:15:30.271Z,6.20
2023-02-07T18:17:58.726Z,6.50
2023-02-07T18:20:31.080Z,7.70
2023-02-07T18:23:00.630Z,13.70
2023-02-07T18:25:29.593Z,10.80
2023-02-07T18:27:58.236Z,11.10
2023-02-07T18:30:27.568Z,11.90
2023-02-07T18:32:55.514Z,13.80
2023-02-07T18:35:23.353Z,11.30
2023-02-07T18:37:51.446Z,11.70
2023-02-07T18:40:19.420Z,9.60
2023-02-07T18:42:47.392Z,10.80
2023-02-07T18:45:15.440Z,10.30
2023-02-07T18:47:43.449Z,15.20
2023-02-07T18:50:12.375Z,13.70
2023-02-07T18:52:40.212Z,17.80
2023-02-07T18:55:09.119Z,15.70
2023-02-07T18:57:37.025Z,16.90
2023-02-07T19:00:06.381Z,13.80
2023-02-07T19:02:34.256Z,11.90
2023-02-07T19:05:02.624Z,11.30
2023-02-07T19:07:30.481Z,8.20
2023-02-07T19:09:58.360Z,7.60
2023-02-07T19:12:26.225Z,7.20
2023-02-07T19:14:54.081Z,7.20
2023-02-07T19:17:24.827Z,10.80
2023-02-07T19:19:53.191Z,11.40
2023-02-07T19:22:30.107Z,9.10
2023-02-07T19:25:04.908Z,8.70
2023-02-07T19:27:33.201Z,7.70
2023-02-07T19:30:01.098Z,8.70
2023-02-07T19:32:28.935Z,8.10
2023-02-07T19:34:56.904Z,9.00
2023-02-07T19:37:24.843Z,8.20
2023-02-07T19:39:55.937Z,7.70
2023-02-07T19:42:24.753Z,7.30
2023-02-07T19:44:52.756Z,6.70
2023-02-07T19:47:20.662Z,7.00
2023-02-07T19:49:51.693Z,7.50
2023-02-07T19:52:20.647Z,7.50
2023-02-07T19:54:49.903Z,6.60
2023-02-07T19:57:17.753Z,6.30
2023-02-07T19:59:48.228Z,7.00
2023-02-07T20:02:16.422Z,6.90
2023-02-07T20:04:44.239Z,6.80
2023-02-07T20:07:12.105Z,7.40
2023-02-07T20:09:39.917Z,7.50
2023-02-07T20:12:07.822Z,7.20
2023-02-07T20:14:35.629Z,8.20
2023-02-07T20:17:03.641Z,7.60
2023-02-07T20:19:31.718Z,7.50
2023-02-07T20:22:00.223Z,7.40
2023-02-07T20:24:28.036Z,7.60
2023-02-07T20:26:56.135Z,8.70
2023-02-07T20:29:24.370Z,8.70
2023-02-07T20:31:52.663Z,8.80
2023-02-07T20:34:20.693Z,9.30
2023-02-07T20:36:48.615Z,8.80
2023-02-07T20:39:18.788Z,8.30
2023-02-07T20:41:49.304Z,9.10
2023-02-07T20:44:19.841Z,9.30
2023-02-07T20:46:49.290Z,10.30
2023-02-07T20:49:20.765Z,11.10
2023-02-07T20:51:51.677Z,11.10
2023-02-07T20:54:23.145Z,12.60
2023-02-07T20:56:53.658Z,17.10
2023-02-07T20:59:25.524Z,11.40
2023-02-07T21:01:54.252Z,18.30
2023-02-07T21:04:22.942Z,13.60
2023-02-07T21:06:50.823Z,14.50
2023-02-07T21:09:19.102Z,12.90
2023-02-07T21:11:49.961Z,9.50
2023-02-07T21:14:19.423Z,8.20
2023-02-07T21:16:47.408Z,8.50
2023-02-07T21:19:15.403Z,8.50
2023-02-07T21:21:43.391Z,10.40
2023-02-07T21:24:11.307Z,32.60
2023-02-07T21:26:39.634Z,23.30
2023-02-07T21:29:08.296Z,19.00
2023-02-07T21:31:36.317Z,12.10
2023-02-07T21:34:05.721Z,10.60
2023-02-07T21:36:38.061Z,11.30
2023-02-07T21:39:10.478Z,19.70
2023-02-07T21:41:41.384Z,19.20
2023-02-07T21:44:10.808Z,11.50
2023-02-07T21:46:40.910Z,9.90
2023-02-07T21:49:14.782Z,9.80
2023-02-07T21:54:11.897Z,9.50
2023-02-07T21:56:42.092Z,10.40
2023-02-07T21:59:20.740Z,9.70
2023-02-07T22:01:49.255Z,10.60
2023-02-07T22:04:17.826Z,10.00
2023-02-07T22:06:47.998Z,10.50
2023-02-07T22:09:19.698Z,9.30
2023-02-07T22:11:47.676Z,9.60
2023-02-07T22:14:16.650Z,11.80
2023-02-07T22:16:44.711Z,19.80
2023-02-07T22:19:14.411Z,17.30
2023-02-07T22:21:42.642Z,10.60
2023-02-07T22:24:13.561Z,9.40
2023-02-07T22:26:42.527Z,8.10
2023-02-07T22:29:11.361Z,8.30
2023-02-07T22:31:41.585Z,8.20
2023-02-07T22:34:13.962Z,7.90
2023-02-07T22:36:44.370Z,8.90
2023-02-07T22:39:14.966Z,8.60
2023-02-07T22:41:43.669Z,7.70
2023-02-07T22:44:11.656Z,9.10
2023-02-07T22:46:39.523Z,8.30
2023-02-07T22:49:07.495Z,9.80
2023-02-07T22:51:37.126Z,8.60
2023-02-07T22:54:12.511Z,8.90
2023-02-07T22:56:40.382Z,9.20
2023-02-07T22:59:08.514Z,9.00
2023-02-07T23:01:39.282Z,10.70
2023-02-07T23:04:12.625Z,11.00
2023-02-07T23:06:41.068Z,11.20
2023-02-07T23:09:09.571Z,9.80
2023-02-07T23:11:38.142Z,9.00
2023-02-07T23:14:06.457Z,8.00
2023-02-07T23:16:34.990Z,9.10
2023-02-07T23:19:07.752Z,8.80
2023-02-07T23:21:35.822Z,8.80
2023-02-07T23:24:04.564Z,10.00
2023-02-07T23:26:33.326Z,8.70
2023-02-07T23:29:01.162Z,8.30
2023-02-07T23:31:29.637Z,8.40
2023-02-07T23:33:57.565Z,8.30
2023-02-07T23:36:25.729Z,8.20
2023-02-07T23:38:53.771Z,9.00
2023-02-07T23:41:21.662Z,8.50
2023-02-07T23:43:49.615Z,8.20
2023-02-07T23:46:18.661Z,7.70
2023-02-07T23:48:46.582Z,8.20
2023-02-07T23:51:15.727Z,7.70
2023-02-07T23:53:44.508Z,8.00
2023-02-07T23:56:18.149Z,8.40
2023-02-07T23:58:47.758Z,8.30
